createdAt,value
2019-04-06T00:00:08.741Z,8.86
2019-04-06T00:01:08.724Z,8.85
2019-04-06T00:02:08.742Z,8.89
2019-04-06T00:03:08.719Z,8.91
2019-04-06T00:04:08.703Z,8.91
2019-04-06T00:05:08.686Z,8.89
2019-04-06T00:06:08.687Z,8.88
2019-04-06T00:07:08.663Z,8.85
2019-04-06T00:08:08.675Z,8.79
2019-04-06T00:09:08.664Z,8.97
2019-04-06T00:10:08.636Z,8.93
2019-04-06T00:11:08.616Z,8.88
2019-04-06T00:12:08.638Z,8.80
2019-04-06T00:13:08.607Z,8.78
2019-04-06T00:14:08.631Z,8.86
2019-04-06T00:15:08.571Z,8.76
2019-04-06T00:16:08.562Z,8.83
2019-04-06T00:17:08.578Z,8.80
2019-04-06T00:18:08.611Z,8.79
2019-04-06T00:19:08.538Z,8.79
2019-04-06T00:20:08.554Z,8.73
2019-04-06T00:21:08.513Z,8.71
2019-04-06T00:22:08.515Z,8.75
2019-04-06T00:23:08.492Z,8.70
2019-04-06T00:24:08.473Z,8.76
2019-04-06T00:25:08.467Z,8.68
2019-04-06T00:26:08.485Z,8.68
2019-04-06T00:27:08.446Z,8.67
2019-04-06T00:28:08.432Z,8.63
2019-04-06T00:29:08.426Z,8.67
2019-04-06T00:30:08.463Z,8.63
2019-04-06T00:31:08.406Z,8.68
2019-04-06T00:32:08.408Z,8.50
2019-04-06T00:33:08.382Z,8.55
2019-04-06T00:34:08.381Z,8.55
2019-04-06T00:35:08.358Z,8.49
2019-04-06T00:36:08.352Z,8.47
2019-04-06T00:37:08.358Z,8.50
2019-04-06T00:38:08.334Z,8.46
2019-04-06T00:39:08.318Z,8.43
2019-04-06T00:40:08.302Z,8.45
2019-04-06T00:41:08.298Z,8.43
2019-04-06T00:42:08.295Z,8.40
2019-04-06T00:43:08.294Z,8.39
2019-04-06T00:44:08.302Z,8.40
2019-04-06T00:45:08.299Z,8.40
2019-04-06T00:46:08.251Z,8.37
2019-04-06T00:47:08.226Z,8.31
2019-04-06T00:48:08.249Z,8.31
2019-04-06T00:49:08.264Z,8.28
2019-04-06T00:50:08.196Z,8.39
2019-04-06T00:51:08.184Z,8.34
2019-04-06T00:52:08.171Z,8.29
2019-04-06T00:53:08.185Z,8.21
2019-04-06T00:54:08.177Z,8.18
2019-04-06T00:55:08.135Z,8.24
2019-04-06T00:56:08.132Z,8.25
2019-04-06T00:57:08.146Z,8.17
2019-04-06T00:58:08.115Z,8.27
2019-04-06T00:59:08.098Z,8.22
2019-04-06T01:00:08.113Z,8.29
2019-04-06T01:01:08.075Z,8.18
2019-04-06T01:02:08.061Z,8.18
2019-04-06T01:03:08.047Z,8.20
2019-04-06T01:04:08.042Z,8.13
2019-04-06T01:05:08.029Z,8.17
2019-04-06T01:06:08.074Z,8.20
2019-04-06T01:07:08.019Z,8.12
2019-04-06T01:08:08.052Z,8.14
2019-04-06T01:09:08.014Z,8.10
2019-04-06T01:10:07.980Z,8.20
2019-04-06T01:11:07.969Z,8.18
2019-04-06T01:12:07.974Z,8.17
2019-04-06T01:13:07.991Z,8.09
2019-04-06T01:14:07.931Z,8.06
2019-04-06T01:15:07.922Z,8.13
2019-04-06T01:16:07.913Z,8.17
2019-04-06T01:17:07.925Z,8.04
2019-04-06T01:18:07.916Z,8.06
2019-04-06T01:19:07.872Z,8.06
2019-04-06T01:20:07.879Z,8.12
2019-04-06T01:21:07.865Z,8.10
2019-04-06T01:22:07.867Z,8.07
2019-04-06T01:23:07.841Z,8.09
2019-04-06T01:24:07.968Z,8.09
2019-04-06T01:25:07.818Z,8.04
2019-04-06T01:26:07.979Z,8.09
2019-04-06T01:27:07.796Z,8.04
2019-04-06T01:28:07.847Z,8.07
2019-04-06T01:29:07.762Z,8.10
2019-04-06T01:30:07.809Z,8.06
2019-04-06T01:31:07.747Z,8.09
2019-04-06T01:32:07.738Z,7.96
2019-04-06T01:33:07.719Z,8.06
2019-04-06T01:34:07.713Z,8.06
2019-04-06T01:35:07.698Z,8.06
2019-04-06T01:36:07.713Z,8.12
2019-04-06T01:37:07.677Z,8.13
2019-04-06T01:38:07.683Z,8.02
2019-04-06T01:39:07.653Z,7.99
2019-04-06T01:40:07.663Z,8.03
2019-04-06T01:41:07.632Z,7.96
2019-04-06T01:42:07.652Z,8.06
2019-04-06T01:43:07.611Z,7.92
2019-04-06T01:44:07.653Z,7.95
2019-04-06T01:45:07.592Z,7.89
2019-04-06T01:46:07.578Z,7.96
2019-04-06T01:47:07.569Z,7.94
2019-04-06T01:48:07.579Z,7.96
2019-04-06T01:49:07.538Z,7.99
2019-04-06T01:50:07.531Z,7.96
2019-04-06T01:51:07.537Z,7.92
2019-04-06T01:52:07.511Z,7.95
2019-04-06T01:53:07.531Z,7.92
2019-04-06T01:54:07.524Z,7.96
2019-04-06T01:55:07.507Z,7.96
2019-04-06T01:56:17.953Z,7.91
2019-04-06T01:57:08.525Z,7.84
2019-04-06T01:58:07.441Z,7.81
2019-04-06T01:59:07.434Z,7.81
2019-04-06T02:00:07.450Z,7.88
2019-04-06T02:01:07.404Z,7.91
2019-04-06T02:02:07.399Z,7.84
2019-04-06T02:03:07.404Z,7.81
2019-04-06T02:04:07.388Z,7.86
2019-04-06T02:05:07.382Z,7.88
2019-04-06T02:06:07.375Z,7.85
2019-04-06T02:07:07.341Z,7.79
2019-04-06T02:08:07.348Z,7.85
2019-04-06T02:09:07.337Z,7.85
2019-04-06T02:10:07.361Z,7.82
2019-04-06T02:11:07.350Z,7.82
2019-04-06T02:12:07.306Z,7.85
2019-04-06T02:13:07.288Z,7.81
2019-04-06T02:14:07.261Z,7.86
2019-04-06T02:15:07.253Z,7.84
2019-04-06T02:16:07.241Z,7.76
2019-04-06T02:17:07.255Z,7.76
2019-04-06T02:18:07.230Z,7.81
2019-04-06T02:19:07.210Z,7.81
2019-04-06T02:20:07.191Z,7.81
2019-04-06T02:21:07.184Z,7.82
2019-04-06T02:22:07.185Z,7.79
2019-04-06T02:23:07.206Z,7.82
2019-04-06T02:24:07.146Z,7.69
2019-04-06T02:25:07.147Z,7.74
2019-04-06T02:26:07.148Z,7.69
2019-04-06T02:27:07.221Z,7.77
2019-04-06T02:28:07.102Z,7.82
2019-04-06T02:29:07.121Z,7.77
2019-04-06T02:30:07.089Z,7.76
2019-04-06T02:31:07.074Z,7.79
2019-04-06T02:32:07.066Z,7.84
2019-04-06T02:33:07.214Z,7.73
2019-04-06T02:34:07.221Z,7.71
2019-04-06T02:35:07.073Z,7.79
2019-04-06T02:36:07.019Z,7.73
2019-04-06T02:37:07.009Z,7.79
2019-04-06T02:38:06.990Z,7.69
2019-04-06T02:39:06.993Z,7.77
2019-04-06T02:40:08.084Z,7.84
2019-04-06T02:41:06.987Z,7.74
2019-04-06T02:42:06.954Z,7.71
2019-04-06T02:43:06.949Z,7.76
2019-04-06T02:44:07.127Z,7.79
2019-04-06T02:45:06.940Z,7.76
2019-04-06T02:46:06.926Z,7.77
2019-04-06T02:47:06.891Z,7.74
2019-04-06T02:48:07.019Z,7.79
2019-04-06T02:49:06.875Z,7.73
2019-04-06T02:50:06.859Z,7.79
2019-04-06T02:51:06.891Z,7.77
2019-04-06T02:52:06.846Z,7.71
2019-04-06T02:53:06.856Z,7.77
2019-04-06T02:54:06.826Z,7.79
2019-04-06T02:55:06.818Z,7.71
2019-04-06T02:56:06.796Z,7.74
2019-04-06T02:57:06.809Z,7.74
2019-04-06T02:58:06.793Z,7.73
2019-04-06T02:59:06.764Z,7.73
2019-04-06T03:00:06.781Z,7.77
2019-04-06T03:01:06.819Z,7.79
2019-04-06T03:02:06.731Z,7.69
2019-04-06T03:03:06.769Z,7.69
2019-04-06T03:04:06.723Z,7.69
2019-04-06T03:05:06.702Z,7.69
2019-04-06T03:06:06.698Z,7.67
2019-04-06T03:07:06.671Z,7.66
2019-04-06T03:08:06.666Z,7.66
2019-04-06T03:09:06.912Z,7.63
2019-04-06T03:10:06.678Z,7.63
2019-04-06T03:11:06.636Z,7.70
2019-04-06T03:12:06.638Z,7.67
2019-04-06T03:13:06.624Z,7.63
2019-04-06T03:14:06.595Z,7.66
2019-04-06T03:15:06.611Z,7.67
2019-04-06T03:16:06.574Z,7.66
2019-04-06T03:17:06.571Z,7.60
2019-04-06T03:18:06.557Z,7.62
2019-04-06T03:19:06.539Z,7.74
2019-04-06T03:20:06.734Z,7.70
2019-04-06T03:21:06.542Z,7.66
2019-04-06T03:22:06.505Z,7.66
2019-04-06T03:23:06.491Z,7.62
2019-04-06T03:24:06.496Z,7.63
2019-04-06T03:25:06.485Z,7.67
2019-04-06T03:26:06.484Z,7.69
2019-04-06T03:27:06.495Z,7.70
2019-04-06T03:28:06.441Z,7.63
2019-04-06T03:29:06.441Z,7.62
2019-04-06T03:30:06.422Z,7.54
2019-04-06T03:31:06.409Z,7.62
2019-04-06T03:32:06.413Z,7.57
2019-04-06T03:33:06.526Z,7.58
2019-04-06T03:34:06.391Z,7.52
2019-04-06T03:35:06.696Z,7.50
2019-04-06T03:36:06.386Z,7.50
2019-04-06T03:37:06.346Z,7.51
2019-04-06T03:38:06.335Z,7.45
2019-04-06T03:39:06.353Z,7.48
2019-04-06T03:40:06.309Z,7.44
2019-04-06T03:41:06.416Z,7.42
2019-04-06T03:42:06.282Z,7.41
2019-04-06T03:43:06.280Z,7.37
2019-04-06T03:44:06.257Z,7.41
2019-04-06T03:45:06.279Z,7.41
2019-04-06T03:46:06.237Z,7.41
2019-04-06T03:47:06.242Z,7.41
2019-04-06T03:48:06.215Z,7.44
2019-04-06T03:49:06.234Z,7.48
2019-04-06T03:50:06.217Z,7.45
2019-04-06T03:51:06.178Z,7.39
2019-04-06T03:52:06.177Z,7.45
2019-04-06T03:53:06.162Z,7.44
2019-04-06T03:54:06.143Z,7.47
2019-04-06T03:55:06.125Z,7.37
2019-04-06T03:56:06.153Z,7.37
2019-04-06T03:57:14.833Z,7.48
2019-04-06T03:58:07.102Z,7.37
2019-04-06T03:59:06.089Z,7.37
2019-04-06T04:00:06.074Z,7.39
2019-04-06T04:01:06.064Z,7.50
2019-04-06T04:02:06.097Z,7.34
2019-04-06T04:03:06.040Z,7.37
2019-04-06T04:04:06.052Z,7.33
2019-04-06T04:05:06.150Z,7.29
2019-04-06T04:06:06.019Z,7.36
2019-04-06T04:07:06.006Z,7.34
2019-04-06T04:08:06.025Z,7.34
2019-04-06T04:09:05.998Z,7.32
2019-04-06T04:10:05.974Z,7.33
2019-04-06T04:11:05.954Z,7.29
2019-04-06T04:12:05.941Z,7.34
2019-04-06T04:13:05.932Z,7.30
2019-04-06T04:14:05.939Z,7.33
2019-04-06T04:15:05.946Z,7.32
2019-04-06T04:16:05.909Z,7.36
2019-04-06T04:17:06.052Z,7.32
2019-04-06T04:18:06.165Z,7.36
2019-04-06T04:19:05.881Z,7.33
2019-04-06T04:20:05.896Z,7.34
2019-04-06T04:21:05.849Z,7.37
2019-04-06T04:22:05.844Z,7.32
2019-04-06T04:23:05.819Z,7.39
2019-04-06T04:24:05.877Z,7.21
2019-04-06T04:25:05.981Z,7.33
2019-04-06T04:26:05.841Z,7.23
2019-04-06T04:27:05.775Z,7.27
2019-04-06T04:28:05.764Z,7.26
2019-04-06T04:29:05.781Z,7.26
2019-04-06T04:30:05.748Z,7.21
2019-04-06T04:31:05.735Z,7.26
2019-04-06T04:32:05.739Z,7.21
2019-04-06T04:33:05.725Z,7.21
2019-04-06T04:34:05.697Z,7.24
2019-04-06T04:35:05.696Z,7.23
2019-04-06T04:36:05.875Z,7.21
2019-04-06T04:37:05.753Z,7.27
2019-04-06T04:38:05.657Z,7.21
2019-04-06T04:39:05.937Z,7.24
2019-04-06T04:40:05.660Z,7.24
2019-04-06T04:41:05.639Z,7.29
2019-04-06T04:42:05.636Z,7.18
2019-04-06T04:43:05.668Z,7.23
2019-04-06T04:44:05.590Z,7.21
2019-04-06T04:45:05.582Z,7.23
2019-04-06T04:46:05.570Z,7.19
2019-04-06T04:47:05.551Z,7.21
2019-04-06T04:48:05.655Z,7.21
2019-04-06T04:49:05.572Z,7.16
2019-04-06T04:50:05.880Z,7.14
2019-04-06T04:51:05.515Z,7.21
2019-04-06T04:52:05.514Z,7.21
2019-04-06T04:53:05.496Z,7.18
2019-04-06T04:54:05.508Z,7.15
2019-04-06T04:55:05.477Z,7.15
2019-04-06T04:56:05.463Z,7.18
2019-04-06T04:57:05.459Z,7.21
2019-04-06T04:58:05.465Z,7.18
2019-04-06T04:59:05.423Z,7.16
2019-04-06T05:00:05.645Z,7.14
2019-04-06T05:01:05.401Z,7.16
2019-04-06T05:02:05.393Z,7.14
2019-04-06T05:03:05.579Z,7.18
2019-04-06T05:04:05.372Z,7.18
2019-04-06T05:05:05.365Z,7.23
2019-04-06T05:06:05.369Z,7.19
2019-04-06T05:07:05.459Z,7.16
2019-04-06T05:08:05.326Z,7.24
2019-04-06T05:09:05.319Z,7.24
2019-04-06T05:10:05.306Z,7.27
2019-04-06T05:11:05.318Z,7.23
2019-04-06T05:12:05.336Z,7.16
2019-04-06T05:13:05.312Z,7.19
2019-04-06T05:14:05.312Z,7.21
2019-04-06T05:15:05.257Z,7.16
2019-04-06T05:16:05.244Z,7.23
2019-04-06T05:17:05.232Z,7.23
2019-04-06T05:18:05.287Z,7.21
2019-04-06T05:19:05.212Z,7.26
2019-04-06T05:20:05.200Z,7.23
2019-04-06T05:21:05.201Z,7.21
2019-04-06T05:22:05.180Z,7.23
2019-04-06T05:23:05.175Z,7.33
2019-04-06T05:24:05.224Z,7.34
2019-04-06T05:25:05.231Z,7.34
2019-04-06T05:26:05.375Z,7.44
2019-04-06T05:27:05.229Z,7.36
2019-04-06T05:28:05.278Z,7.29
2019-04-06T05:29:05.108Z,7.41
2019-04-06T05:30:05.163Z,7.47
2019-04-06T05:31:05.140Z,7.42
2019-04-06T05:32:05.070Z,7.44
2019-04-06T05:33:05.068Z,7.45
2019-04-06T05:34:05.140Z,7.42
2019-04-06T05:35:05.033Z,7.42
2019-04-06T05:36:05.168Z,7.41
2019-04-06T05:37:05.022Z,7.42
2019-04-06T05:38:05.012Z,7.39
2019-04-06T05:39:05.207Z,7.44
2019-04-06T05:40:05.061Z,7.47
2019-04-06T05:41:05.147Z,7.48
2019-04-06T05:42:04.991Z,7.45
2019-04-06T05:43:04.950Z,7.51
2019-04-06T05:44:04.942Z,7.51
2019-04-06T05:45:05.524Z,7.52
2019-04-06T05:46:04.912Z,7.57
2019-04-06T05:47:04.899Z,7.48
2019-04-06T05:48:04.938Z,7.51
2019-04-06T05:49:05.379Z,7.50
2019-04-06T05:50:04.881Z,7.62
2019-04-06T05:51:04.876Z,7.54
2019-04-06T05:52:04.846Z,7.62
2019-04-06T05:53:04.840Z,7.62
2019-04-06T05:54:04.858Z,7.63
2019-04-06T05:55:05.091Z,7.62
2019-04-06T05:56:05.375Z,7.67
2019-04-06T05:57:05.107Z,7.66
2019-04-06T05:58:09.429Z,7.70
2019-04-06T05:59:05.805Z,7.67
2019-04-06T06:00:04.906Z,7.67
2019-04-06T06:01:04.808Z,7.67
2019-04-06T06:02:04.894Z,7.67
2019-04-06T06:03:04.782Z,7.77
2019-04-06T06:04:04.718Z,7.74
2019-04-06T06:05:04.780Z,7.71
2019-04-06T06:06:04.717Z,7.76
2019-04-06T06:07:04.693Z,7.76
2019-04-06T06:08:04.687Z,7.76
2019-04-06T06:09:04.674Z,7.81
2019-04-06T06:10:04.818Z,7.71
2019-04-06T06:11:04.659Z,7.84
2019-04-06T06:12:04.862Z,7.77
2019-04-06T06:13:04.648Z,7.84
2019-04-06T06:14:04.621Z,7.82
2019-04-06T06:15:04.612Z,7.89
2019-04-06T06:16:04.627Z,8.06
2019-04-06T06:17:04.599Z,8.00
2019-04-06T06:18:04.566Z,8.07
2019-04-06T06:19:04.566Z,8.13
2019-04-06T06:20:04.715Z,8.12
2019-04-06T06:21:04.553Z,8.06
2019-04-06T06:22:04.707Z,8.13
2019-04-06T06:23:04.519Z,8.17
2019-04-06T06:24:04.520Z,8.20
2019-04-06T06:25:04.970Z,8.28
2019-04-06T06:26:04.484Z,8.10
2019-04-06T06:27:04.470Z,8.27
2019-04-06T06:28:13.870Z,8.24
2019-04-06T06:29:05.656Z,8.29
2019-04-06T06:30:04.435Z,8.29
2019-04-06T06:31:04.434Z,8.31
2019-04-06T06:32:04.564Z,8.39
2019-04-06T06:33:04.573Z,8.39
2019-04-06T06:34:04.386Z,8.32
2019-04-06T06:35:04.377Z,8.29
2019-04-06T06:36:04.441Z,8.39
2019-04-06T06:37:04.410Z,8.39
2019-04-06T06:38:04.489Z,8.32
2019-04-06T06:39:04.337Z,8.43
2019-04-06T06:40:04.458Z,8.39
2019-04-06T06:41:04.328Z,8.45
2019-04-06T06:42:04.358Z,8.42
2019-04-06T06:43:04.367Z,8.39
2019-04-06T06:44:04.568Z,8.45
2019-04-06T06:45:04.408Z,8.50
2019-04-06T06:46:04.259Z,8.40
2019-04-06T06:47:04.341Z,8.45
2019-04-06T06:48:04.281Z,8.46
2019-04-06T06:49:04.342Z,8.50
2019-04-06T06:50:04.415Z,8.49
2019-04-06T06:51:04.345Z,8.45
2019-04-06T06:52:04.197Z,8.57
2019-04-06T06:53:04.175Z,8.57
2019-04-06T06:54:04.173Z,8.55
2019-04-06T06:55:04.213Z,8.57
2019-04-06T06:56:04.173Z,8.52
2019-04-06T06:57:04.135Z,8.61
2019-04-06T06:58:04.127Z,8.61
2019-04-06T06:59:04.159Z,8.60
2019-04-06T07:00:04.122Z,8.68
2019-04-06T07:01:04.140Z,8.64
2019-04-06T07:02:04.081Z,8.65
2019-04-06T07:03:04.066Z,8.65
2019-04-06T07:04:04.054Z,8.70
2019-04-06T07:05:04.137Z,8.64
2019-04-06T07:06:04.079Z,8.68
2019-04-06T07:07:04.050Z,8.75
2019-04-06T07:08:04.015Z,8.68
2019-04-06T07:09:04.017Z,8.65
2019-04-06T07:10:05.773Z,8.80
2019-04-06T07:11:04.026Z,8.80
2019-04-06T07:12:03.997Z,8.78
2019-04-06T07:13:03.986Z,8.89
2019-04-06T07:14:03.991Z,8.98
2019-04-06T07:15:03.942Z,8.98
2019-04-06T07:16:03.929Z,8.93
2019-04-06T07:17:03.920Z,8.89
2019-04-06T07:18:03.920Z,8.97
2019-04-06T07:19:04.141Z,8.98
2019-04-06T07:20:03.925Z,9.00
2019-04-06T07:21:03.866Z,9.00
2019-04-06T07:22:03.856Z,8.98
2019-04-06T07:23:03.872Z,9.00
2019-04-06T07:24:03.854Z,8.98
2019-04-06T07:25:03.822Z,9.06
2019-04-06T07:26:03.810Z,9.00
2019-04-06T07:27:03.853Z,9.01
2019-04-06T07:28:03.808Z,9.08
2019-04-06T07:29:03.822Z,9.12
2019-04-06T07:30:03.833Z,9.08
2019-04-06T07:31:03.760Z,9.13
2019-04-06T07:32:03.795Z,9.15
2019-04-06T07:33:03.816Z,9.15
2019-04-06T07:34:03.789Z,9.19
2019-04-06T07:35:03.796Z,9.22
2019-04-06T07:36:03.788Z,9.20
2019-04-06T07:37:03.778Z,9.27
2019-04-06T07:38:03.682Z,9.30
2019-04-06T07:39:03.752Z,9.24
2019-04-06T07:40:03.668Z,9.26
2019-04-06T07:41:04.019Z,9.40
2019-04-06T07:42:03.636Z,9.37
2019-04-06T07:43:03.638Z,9.42
2019-04-06T07:44:05.636Z,9.40
2019-04-06T07:45:03.613Z,9.42
2019-04-06T07:46:03.621Z,9.44
2019-04-06T07:47:03.811Z,9.48
2019-04-06T07:48:03.743Z,9.42
2019-04-06T07:49:09.531Z,9.42
2019-04-06T07:50:04.565Z,9.44
2019-04-06T07:51:03.680Z,9.50
2019-04-06T07:52:03.563Z,9.52
2019-04-06T07:53:03.518Z,9.58
2019-04-06T07:54:03.652Z,9.59
2019-04-06T07:55:03.517Z,9.67
2019-04-06T07:56:03.565Z,9.70
2019-04-06T07:57:03.475Z,9.70
2019-04-06T07:58:03.511Z,9.70
2019-04-06T07:59:03.485Z,9.80
2019-04-06T08:00:03.453Z,9.81
2019-04-06T08:01:03.585Z,9.77
2019-04-06T08:02:03.439Z,9.83
2019-04-06T08:03:03.404Z,9.89
2019-04-06T08:04:03.425Z,9.89
2019-04-06T08:05:03.661Z,9.85
2019-04-06T08:06:03.381Z,9.92
2019-04-06T08:07:03.373Z,9.98
2019-04-06T08:08:03.362Z,9.95
2019-04-06T08:09:03.346Z,9.93
2019-04-06T08:10:03.356Z,10.02
2019-04-06T08:11:03.325Z,10.04
2019-04-06T08:12:03.331Z,10.07
2019-04-06T08:13:03.317Z,10.10
2019-04-06T08:14:03.284Z,10.07
2019-04-06T08:15:03.292Z,10.16
2019-04-06T08:16:03.398Z,10.14
2019-04-06T08:17:03.266Z,10.22
2019-04-06T08:18:03.246Z,10.22
2019-04-06T08:19:03.357Z,10.34
2019-04-06T08:20:03.255Z,10.26
2019-04-06T08:21:03.748Z,10.32
2019-04-06T08:22:03.197Z,10.32
2019-04-06T08:23:03.375Z,10.32
2019-04-06T08:24:03.202Z,10.34
2019-04-06T08:25:03.215Z,10.38
2019-04-06T08:26:03.181Z,10.43
2019-04-06T08:27:03.147Z,10.46
2019-04-06T08:28:03.136Z,10.46
2019-04-06T08:29:03.219Z,10.51
2019-04-06T08:30:03.150Z,10.49
2019-04-06T08:31:03.196Z,10.63
2019-04-06T08:32:03.231Z,10.63
2019-04-06T08:33:03.117Z,10.68
2019-04-06T08:34:03.088Z,10.76
2019-04-06T08:35:03.099Z,10.76
2019-04-06T08:36:03.118Z,10.87
2019-04-06T08:37:03.041Z,10.86
2019-04-06T08:38:03.031Z,10.90
2019-04-06T08:39:03.022Z,10.98
2019-04-06T08:40:03.128Z,10.99
2019-04-06T08:41:03.022Z,11.06
2019-04-06T08:42:03.081Z,10.94
2019-04-06T08:43:02.999Z,10.98
2019-04-06T08:44:02.973Z,10.90
2019-04-06T08:45:02.955Z,10.94
2019-04-06T08:46:02.939Z,10.95
2019-04-06T08:47:02.957Z,10.95
2019-04-06T08:48:02.923Z,10.93
2019-04-06T08:49:02.909Z,10.98
2019-04-06T08:50:02.922Z,10.98
2019-04-06T08:51:02.929Z,10.98
2019-04-06T08:52:02.965Z,10.99
2019-04-06T08:53:02.937Z,11.05
2019-04-06T08:54:03.174Z,11.03
2019-04-06T08:55:03.055Z,11.08
2019-04-06T08:56:02.830Z,11.11
2019-04-06T08:57:02.921Z,11.16
2019-04-06T08:58:02.829Z,11.28
2019-04-06T08:59:11.232Z,11.30
2019-04-06T09:00:03.837Z,11.41
2019-04-06T09:01:02.790Z,11.49
2019-04-06T09:02:02.787Z,11.51
2019-04-06T09:03:02.779Z,11.53
2019-04-06T09:04:02.757Z,11.54
2019-04-06T09:05:02.951Z,11.69
2019-04-06T09:06:02.731Z,11.66
2019-04-06T09:07:02.728Z,11.84
2019-04-06T09:08:02.711Z,11.82
2019-04-06T09:09:02.696Z,11.87
2019-04-06T09:10:02.764Z,11.97
2019-04-06T09:11:02.697Z,12.03
2019-04-06T09:12:02.978Z,12.01
2019-04-06T09:13:02.661Z,12.13
2019-04-06T09:14:02.641Z,12.15
2019-04-06T09:15:02.684Z,12.18
2019-04-06T09:16:03.868Z,12.29
2019-04-06T09:17:02.611Z,12.25
2019-04-06T09:18:02.606Z,12.31
2019-04-06T09:19:02.589Z,12.30
2019-04-06T09:20:02.604Z,12.36
2019-04-06T09:21:02.591Z,12.33
2019-04-06T09:22:02.581Z,12.41
2019-04-06T09:23:02.563Z,12.38
2019-04-06T09:24:02.710Z,12.49
2019-04-06T09:25:02.553Z,12.52
2019-04-06T09:26:02.778Z,12.49
2019-04-06T09:27:02.698Z,12.56
2019-04-06T09:28:02.529Z,12.56
2019-04-06T09:29:02.762Z,12.56
2019-04-06T09:30:02.709Z,12.51
2019-04-06T09:31:02.521Z,12.62
2019-04-06T09:32:02.467Z,12.74
2019-04-06T09:33:02.692Z,12.76
2019-04-06T09:34:02.511Z,12.77
2019-04-06T09:35:02.699Z,12.79
2019-04-06T09:36:02.652Z,12.91
2019-04-06T09:37:02.821Z,12.96
2019-04-06T09:38:02.395Z,12.94
2019-04-06T09:39:02.393Z,13.13
2019-04-06T09:40:02.492Z,13.16
2019-04-06T09:41:02.413Z,13.22
2019-04-06T09:42:02.389Z,13.22
2019-04-06T09:43:02.427Z,13.24
2019-04-06T09:44:02.334Z,13.29
2019-04-06T09:45:02.358Z,13.36
2019-04-06T09:46:02.556Z,13.39
2019-04-06T09:47:02.384Z,13.27
2019-04-06T09:48:02.334Z,13.38
2019-04-06T09:49:02.489Z,13.36
2019-04-06T09:50:02.511Z,13.35
2019-04-06T09:51:02.623Z,13.35
2019-04-06T09:52:02.236Z,13.32
2019-04-06T09:53:02.302Z,13.25
2019-04-06T09:54:06.226Z,13.24
2019-04-06T09:55:02.199Z,13.25
2019-04-06T09:56:02.205Z,13.35
2019-04-06T09:57:02.425Z,13.48
2019-04-06T09:58:02.187Z,13.44
2019-04-06T09:59:02.162Z,13.36
2019-04-06T10:00:02.142Z,13.36
2019-04-06T10:01:02.137Z,13.46
2019-04-06T10:02:02.125Z,13.36
2019-04-06T10:03:02.135Z,13.46
2019-04-06T10:04:02.120Z,13.50
2019-04-06T10:05:02.152Z,13.54
2019-04-06T10:06:02.109Z,13.54
2019-04-06T10:07:02.072Z,13.61
2019-04-06T10:08:02.286Z,13.71
2019-04-06T10:09:02.085Z,13.75
2019-04-06T10:10:02.039Z,13.80
2019-04-06T10:11:02.036Z,13.81
2019-04-06T10:12:03.554Z,13.83
2019-04-06T10:13:02.112Z,13.91
2019-04-06T10:14:02.134Z,13.96
2019-04-06T10:15:02.012Z,13.96
2019-04-06T10:16:01.985Z,13.99
2019-04-06T10:17:02.026Z,13.98
2019-04-06T10:18:01.951Z,13.91
2019-04-06T10:19:01.938Z,13.98
2019-04-06T10:20:01.932Z,14.05
2019-04-06T10:21:01.955Z,14.11
2019-04-06T10:22:01.907Z,14.12
2019-04-06T10:23:01.899Z,14.11
2019-04-06T10:24:02.172Z,14.12
2019-04-06T10:25:02.234Z,14.31
2019-04-06T10:26:01.987Z,14.26
2019-04-06T10:27:01.885Z,14.27
2019-04-06T10:28:01.839Z,14.35
2019-04-06T10:29:02.040Z,14.26
2019-04-06T10:30:01.814Z,14.59
2019-04-06T10:31:02.224Z,14.67
2019-04-06T10:32:02.167Z,14.69
2019-04-06T10:33:01.825Z,14.80
2019-04-06T10:34:02.049Z,14.78
2019-04-06T10:35:01.808Z,14.85
2019-04-06T10:36:01.748Z,14.97
2019-04-06T10:37:01.786Z,15.09
2019-04-06T10:38:01.831Z,15.16
2019-04-06T10:39:01.742Z,15.09
2019-04-06T10:40:01.709Z,15.13
2019-04-06T10:41:01.759Z,15.25
2019-04-06T10:42:01.679Z,15.18
2019-04-06T10:43:01.984Z,15.27
2019-04-06T10:44:01.704Z,15.28
2019-04-06T10:45:01.748Z,15.28
2019-04-06T10:46:01.682Z,15.28
2019-04-06T10:47:01.664Z,15.34
2019-04-06T10:48:01.632Z,15.34
2019-04-06T10:49:01.659Z,15.34
2019-04-06T10:50:01.710Z,15.35
2019-04-06T10:51:01.619Z,15.40
2019-04-06T10:52:01.597Z,15.44
2019-04-06T10:53:01.569Z,15.62
2019-04-06T10:54:01.574Z,15.68
2019-04-06T10:55:01.738Z,15.76
2019-04-06T10:56:01.578Z,15.89
2019-04-06T10:57:01.513Z,15.95
2019-04-06T10:58:01.700Z,15.99
2019-04-06T10:59:03.373Z,15.98
2019-04-06T11:00:03.343Z,16.06
2019-04-06T11:01:01.493Z,16.18
2019-04-06T11:02:01.468Z,16.13
2019-04-06T11:03:01.453Z,16.11
2019-04-06T11:04:01.432Z,16.22
2019-04-06T11:05:01.455Z,16.22
2019-04-06T11:06:01.475Z,16.37
2019-04-06T11:07:01.433Z,16.34
2019-04-06T11:08:01.398Z,16.47
2019-04-06T11:09:01.385Z,16.48
2019-04-06T11:10:01.385Z,16.52
2019-04-06T11:11:02.797Z,16.59
2019-04-06T11:12:01.354Z,16.75
2019-04-06T11:13:01.365Z,16.75
2019-04-06T11:14:01.329Z,16.90
2019-04-06T11:15:01.387Z,16.92
2019-04-06T11:16:01.314Z,16.92
2019-04-06T11:17:01.301Z,17.05
2019-04-06T11:18:01.282Z,17.10
2019-04-06T11:19:01.500Z,17.18
2019-04-06T11:20:01.270Z,17.30
2019-04-06T11:21:01.249Z,17.35
2019-04-06T11:22:01.336Z,17.42
2019-04-06T11:23:01.245Z,17.53
2019-04-06T11:24:01.488Z,17.53
2019-04-06T11:25:01.229Z,17.57
2019-04-06T11:26:01.443Z,17.66
2019-04-06T11:27:01.184Z,17.76
2019-04-06T11:28:03.591Z,17.86
2019-04-06T11:29:01.195Z,17.89
2019-04-06T11:30:12.055Z,17.81
2019-04-06T11:31:02.145Z,17.89
2019-04-06T11:32:01.198Z,17.99
2019-04-06T11:33:01.136Z,18.01
2019-04-06T11:34:01.144Z,18.05
2019-04-06T11:35:01.327Z,18.11
2019-04-06T11:36:01.116Z,18.13
2019-04-06T11:37:01.172Z,18.13
2019-04-06T11:38:01.069Z,18.14
2019-04-06T11:39:01.536Z,18.25
2019-04-06T11:40:01.070Z,18.32
2019-04-06T11:41:01.074Z,18.28
2019-04-06T11:42:01.024Z,18.34
2019-04-06T11:43:01.014Z,18.47
2019-04-06T11:44:01.018Z,18.47
2019-04-06T11:45:01.149Z,18.51
2019-04-06T11:46:01.007Z,18.56
2019-04-06T11:47:01.147Z,18.53
2019-04-06T11:48:01.033Z,18.51
2019-04-06T11:49:00.975Z,18.60
2019-04-06T11:50:01.042Z,18.64
2019-04-06T11:51:00.932Z,18.59
2019-04-06T11:52:00.996Z,18.62
2019-04-06T11:53:00.921Z,18.65
2019-04-06T11:54:01.206Z,18.72
2019-04-06T11:55:00.891Z,18.76
2019-04-06T11:56:00.878Z,18.71
2019-04-06T11:57:00.870Z,18.78
2019-04-06T11:58:00.893Z,18.79
2019-04-06T11:59:00.852Z,18.79
2019-04-06T12:00:00.838Z,18.82
2019-04-06T12:01:01.276Z,18.93
2019-04-06T12:02:00.809Z,18.89
2019-04-06T12:03:00.825Z,18.89
2019-04-06T12:04:00.784Z,19.02
2019-04-06T12:05:00.835Z,19.01
2019-04-06T12:06:00.772Z,19.05
2019-04-06T12:07:01.464Z,19.23
2019-04-06T12:08:00.742Z,19.17
2019-04-06T12:09:00.760Z,19.27
2019-04-06T12:10:00.788Z,19.31
2019-04-06T12:11:00.800Z,19.31
2019-04-06T12:12:00.705Z,19.42
2019-04-06T12:13:00.734Z,19.35
2019-04-06T12:14:00.779Z,19.45
2019-04-06T12:15:00.683Z,19.35
2019-04-06T12:16:00.673Z,19.52
2019-04-06T12:17:00.884Z,19.45
2019-04-06T12:18:00.881Z,19.49
2019-04-06T12:19:00.713Z,19.58
2019-04-06T12:20:00.625Z,19.55
2019-04-06T12:21:00.629Z,19.68
2019-04-06T12:22:00.641Z,19.61
2019-04-06T12:23:00.877Z,19.64
2019-04-06T12:24:00.600Z,19.61
2019-04-06T12:25:00.592Z,19.65
2019-04-06T12:26:00.588Z,19.62
2019-04-06T12:27:00.817Z,19.64
2019-04-06T12:28:00.600Z,19.64
2019-04-06T12:29:00.525Z,19.79
2019-04-06T12:30:00.762Z,19.80
2019-04-06T12:31:00.531Z,19.87
2019-04-06T12:32:00.533Z,19.89
2019-04-06T12:33:00.487Z,19.89
2019-04-06T12:34:00.551Z,19.95
2019-04-06T12:35:00.467Z,19.90
2019-04-06T12:36:00.462Z,20.00
2019-04-06T12:37:00.470Z,20.05
2019-04-06T12:38:00.448Z,20.13
2019-04-06T12:39:00.651Z,20.16
2019-04-06T12:40:00.450Z,20.13
2019-04-06T12:41:00.402Z,20.23
2019-04-06T12:42:00.691Z,20.23
2019-04-06T12:43:00.444Z,20.27
2019-04-06T12:44:00.417Z,20.27
2019-04-06T12:45:00.374Z,20.27
2019-04-06T12:46:00.396Z,20.33
2019-04-06T12:47:00.337Z,20.37
2019-04-06T12:48:00.643Z,20.41
2019-04-06T12:49:00.311Z,20.42
2019-04-06T12:50:00.353Z,20.44
2019-04-06T12:51:00.556Z,20.38
2019-04-06T12:52:00.298Z,20.34
2019-04-06T12:53:00.271Z,20.37
2019-04-06T12:54:00.271Z,20.37
2019-04-06T12:55:00.278Z,20.56
2019-04-06T12:56:00.290Z,20.48
2019-04-06T12:57:00.245Z,20.60
2019-04-06T12:58:00.227Z,20.61
2019-04-06T12:59:00.269Z,20.51
2019-04-06T13:00:00.219Z,20.46
2019-04-06T13:01:00.291Z,20.53
2019-04-06T13:02:00.185Z,20.44
2019-04-06T13:03:00.171Z,20.51
2019-04-06T13:04:00.184Z,20.51
2019-04-06T13:05:00.529Z,20.61
2019-04-06T13:06:00.173Z,20.61
2019-04-06T13:07:00.214Z,20.63
2019-04-06T13:08:00.116Z,20.66